Wolf Creek, OR (97497)

1:57 AM PDT en Noviembre 01, 2014 (GMT -0700)
wolf creek | Change Station
CLOSE
Current Station
Estación meteorológica personal
Location: Wolf Creek, OR
Altura: 1503 ft
Estaciones meteorológicas cercanas
Aviso en curso: Frost Advisory

Alt 1503 ft 42.71 °N, 123.37 °W | Updated 1 second ago

Nublado
Nublado
42.3 ° F
Sensación térmica 42 ° F
N
0.0
Viento Variable Viento desde NNO
Gusts 0.0 mph

Hoy
Alta -- | Baja -- ° F
--% Posibilidad de precipitaciones
Ayer
Alta -- | Baja -- ° F
Precip. -- pul
7:47 AM 6:06 PM
Gibosa creciente, 64% visible
Presión 29.79 pul
Visibilidad 10.0 Millas
Nubes Muy nublado 8500 ft
Vientos helados 42 ° F
Punto de rocío 41 ° F
Humedad 96%
Precipitaciones 0.00 pul
Espesor de la nieve No disponible.
UV 0 de una escala de 12
Polen .40 de una escala de 12
Calidad del aire No disponible.
Flu Activity No disponible.
METAR KMFR 010753Z AUTO 00000KT 10SM BKN085 08/07 A2979 RMK AO2 SLP087 T00830072 401500083

More Conditions Fewer Conditions

Presión 29.79 pul
Visibilidad 10.0 Millas
Nubes Muy nublado 8500 ft
Vientos helados 42 ° F
Punto de rocío 41 ° F
Humedad 96%
Precipitaciones 0.00 pul
Espesor de la nieve No disponible.
UV 0 de una escala de 12
Polen .40 de una escala de 12
Calidad del aire No disponible.
Flu Activity No disponible.
METAR KMFR 010753Z AUTO 00000KT 10SM BKN085 08/07 A2979 RMK AO2 SLP087 T00830072 401500083

More Conditions Fewer Conditions

10-Day Weather Forecast

Almanac

Astronomía

Nov. 01, 2014 Salida Puesta
Hora real
Crepúsculo civil
Crepúsculo náutico
Crepúsculo astronómico
Luna
Horas de luz
Horas de luz
Tomorrow will be .
, % of the Moon is Illuminated

Extremos de hoy

Máximos del estado Bajos del estado

Community

WunderPhotos

Upload Photos

1,766,871 ¡fotos cargadas!

WunderBlogs® & News

Nearby

Calidad del aire

  Calidad del aire Índice AQ Contaminante
Not available.

Grosos de nieve

Estación Profundido Altura

Actividad de terremotos

Ciudad Distance Mag. Tiempo y dato
Magnitud mínima muestra es 2,5.

Temperaturas de aguas costeras

Lugar Temperatura

Estaciones meteorológicas cercanas